createdAt,value
2018-09-28T00:01:27.733Z,13.70
2018-09-28T00:03:57.535Z,13.70
2018-09-28T00:06:26.605Z,13.70
2018-09-28T00:09:10.920Z,13.70
2018-09-28T00:18:31.032Z,13.50
2018-09-28T00:21:00.561Z,13.50
2018-09-28T00:23:29.722Z,13.40
2018-09-28T00:25:59.058Z,13.30
2018-09-28T00:28:28.086Z,13.30
2018-09-28T00:30:57.289Z,13.30
2018-09-28T00:33:27.896Z,13.20
2018-09-28T00:36:17.743Z,13.20
2018-09-28T00:38:46.883Z,13.10
2018-09-28T00:41:16.189Z,13.10
2018-09-28T00:43:57.862Z,13.10
2018-09-28T00:46:27.054Z,13.10
2018-09-28T00:48:59.949Z,13.00
2018-09-28T00:51:36.658Z,13.00
2018-09-28T00:54:05.811Z,13.00
2018-09-28T00:56:58.347Z,13.00
2018-09-28T00:59:35.525Z,13.00
2018-09-28T01:02:04.725Z,13.00
2018-09-28T01:04:59.752Z,13.00
2018-09-28T01:07:28.772Z,13.10
2018-09-28T01:09:57.966Z,13.10
2018-09-28T01:12:28.743Z,13.10
2018-09-28T01:14:57.984Z,13.10
2018-09-28T01:17:27.135Z,13.10
2018-09-28T01:20:08.719Z,13.00
2018-09-28T01:22:45.245Z,13.00
2018-09-28T01:25:14.437Z,13.00
2018-09-28T01:27:43.602Z,12.90
2018-09-28T01:30:12.803Z,12.90
2018-09-28T01:32:56.554Z,12.90
2018-09-28T01:35:32.873Z,12.90
2018-09-28T01:38:03.446Z,12.80
2018-09-28T01:40:34.306Z,12.80
2018-09-28T01:43:03.947Z,12.80
2018-09-28T01:45:35.230Z,12.70
2018-09-28T01:48:04.625Z,12.70
2018-09-28T01:50:34.066Z,12.70
2018-09-28T01:53:05.185Z,12.70
2018-09-28T01:55:38.407Z,12.70
2018-09-28T01:58:07.847Z,12.60
2018-09-28T02:00:38.894Z,12.60
2018-09-28T02:03:08.165Z,12.60
2018-09-28T02:05:44.686Z,12.60
2018-09-28T02:08:13.801Z,12.60
2018-09-28T02:10:42.958Z,12.50
2018-09-28T02:13:12.285Z,12.50
2018-09-28T02:15:41.525Z,12.40
2018-09-28T02:18:27.115Z,12.40
2018-09-28T02:20:56.247Z,12.30
2018-09-28T02:23:25.413Z,12.30
2018-09-28T02:25:54.654Z,12.20
2018-09-28T02:28:23.827Z,12.10
2018-09-28T02:30:53.033Z,12.10
2018-09-28T02:33:22.201Z,12.00
2018-09-28T02:35:53.988Z,12.00
2018-09-28T02:38:23.179Z,12.00
2018-09-28T02:41:12.580Z,12.00
2018-09-28T02:43:57.637Z,12.00
2018-09-28T02:46:26.978Z,12.00
2018-09-28T02:49:10.843Z,12.00
2018-09-28T02:51:40.001Z,11.90
2018-09-28T02:54:26.006Z,11.90
2018-09-28T02:57:07.663Z,11.90
2018-09-28T02:59:48.565Z,11.90
2018-09-28T03:02:17.717Z,11.90
2018-09-28T03:04:54.991Z,11.90
2018-09-28T03:07:36.331Z,11.80
2018-09-28T03:10:06.507Z,11.90
2018-09-28T03:12:35.651Z,11.80
2018-09-28T03:15:17.676Z,11.90
2018-09-28T03:17:55.082Z,11.80
2018-09-28T03:20:25.315Z,11.80
2018-09-28T03:22:54.492Z,11.80
2018-09-28T03:25:23.664Z,11.70
2018-09-28T03:27:53.095Z,11.80
2018-09-28T03:30:22.219Z,11.80
2018-09-28T03:32:51.359Z,11.80
2018-09-28T03:35:20.501Z,11.80
2018-09-28T03:37:49.653Z,11.80
2018-09-28T03:40:18.818Z,11.70
2018-09-28T03:42:55.245Z,11.70
2018-09-28T03:45:24.491Z,11.60
2018-09-28T03:48:04.417Z,11.50
2018-09-28T03:50:33.632Z,11.50
2018-09-28T03:53:02.766Z,11.50
2018-09-28T03:55:31.929Z,11.50
2018-09-28T03:58:11.997Z,11.60
2018-09-28T04:00:42.777Z,11.50
2018-09-28T04:03:12.734Z,11.50
2018-09-28T04:05:41.880Z,11.40
2018-09-28T04:08:11.975Z,11.40
2018-09-28T04:11:21.635Z,11.40
2018-09-28T04:13:50.817Z,11.40
2018-09-28T04:16:24.793Z,11.40
2018-09-28T04:18:54.943Z,11.30
2018-09-28T04:25:05.390Z,11.30
2018-09-28T04:31:06.610Z,11.30
2018-09-28T04:33:36.099Z,11.30
2018-09-28T04:36:05.240Z,11.30
2018-09-28T04:42:09.711Z,11.30
2018-09-28T04:44:39.515Z,11.30
2018-09-28T04:47:09.423Z,11.20
2018-09-28T04:49:39.193Z,11.20
2018-09-28T04:52:49.686Z,11.20
2018-09-28T04:56:05.455Z,11.20
2018-09-28T04:58:35.758Z,11.20
2018-09-28T05:01:04.858Z,11.20
2018-09-28T05:03:33.963Z,11.20
2018-09-28T05:10:12.997Z,11.40
2018-09-28T05:12:42.074Z,11.40
2018-09-28T05:15:11.149Z,11.40
2018-09-28T05:17:40.328Z,11.40
2018-09-28T05:20:09.841Z,11.40
2018-09-28T05:22:40.495Z,11.40
2018-09-28T05:25:22.777Z,11.40
2018-09-28T05:28:25.661Z,11.40
2018-09-28T05:31:44.471Z,11.50
2018-09-28T05:34:21.696Z,11.50
2018-09-28T05:36:50.900Z,11.60
2018-09-28T05:39:58.730Z,11.60
2018-09-28T05:42:33.919Z,11.70
2018-09-28T05:45:55.122Z,11.80
2018-09-28T05:48:37.997Z,11.80
2018-09-28T05:51:08.154Z,11.90
2018-09-28T05:56:36.429Z,12.00
2018-09-28T06:02:13.771Z,12.10
2018-09-28T06:04:48.156Z,12.10
2018-09-28T06:07:22.658Z,12.20
2018-09-28T06:13:23.222Z,12.30
2018-09-28T06:16:15.193Z,12.30
2018-09-28T06:18:46.975Z,12.30
2018-09-28T06:21:41.837Z,12.40
2018-09-28T06:27:31.769Z,12.40
2018-09-28T06:33:33.792Z,12.40
2018-09-28T06:36:02.939Z,12.40
2018-09-28T06:38:31.992Z,12.50
2018-09-28T06:41:01.137Z,12.50
2018-09-28T06:43:30.281Z,12.50
2018-09-28T06:45:59.487Z,12.60
2018-09-28T06:48:29.039Z,12.60
2018-09-28T06:50:58.279Z,12.70
2018-09-28T06:53:27.490Z,12.70
2018-09-28T06:55:56.574Z,12.70
2018-09-28T06:58:25.792Z,12.80
2018-09-28T07:00:55.011Z,12.80
2018-09-28T07:03:24.210Z,12.90
2018-09-28T07:05:53.321Z,13.00
2018-09-28T07:08:22.490Z,13.00
2018-09-28T07:10:51.595Z,13.10
2018-09-28T07:13:21.165Z,13.20
2018-09-28T07:15:55.634Z,13.30
2018-09-28T07:18:24.749Z,13.30
2018-09-28T07:20:56.634Z,13.40
2018-09-28T07:27:01.201Z,13.60
2018-09-28T07:29:30.215Z,13.80
2018-09-28T07:31:59.302Z,14.00
2018-09-28T07:34:28.472Z,14.10
2018-09-28T07:36:57.792Z,14.20
2018-09-28T07:39:26.863Z,14.30
2018-09-28T07:41:56.850Z,14.30
2018-09-28T07:44:25.808Z,14.40
2018-09-28T07:46:54.870Z,14.50
2018-09-28T07:49:25.868Z,14.60
2018-09-28T07:51:57.136Z,14.70
2018-09-28T07:54:26.201Z,14.80
2018-09-28T07:56:55.178Z,14.90
2018-09-28T07:59:24.379Z,15.00
2018-09-28T08:01:53.610Z,15.00
2018-09-28T08:04:24.140Z,15.20
2018-09-28T08:06:53.322Z,15.30
2018-09-28T08:09:22.427Z,15.40
2018-09-28T08:11:51.692Z,15.50
2018-09-28T08:14:20.890Z,15.60
2018-09-28T08:16:50.141Z,15.70
2018-09-28T08:19:19.987Z,15.90
2018-09-28T08:21:49.825Z,16.00
2018-09-28T08:24:29.417Z,16.20
2018-09-28T08:26:58.558Z,16.40
2018-09-28T08:29:28.414Z,16.60
2018-09-28T08:31:57.482Z,16.90
2018-09-28T08:34:26.593Z,17.30
2018-09-28T08:36:55.768Z,17.70
2018-09-28T08:39:24.898Z,18.00
2018-09-28T08:41:56.028Z,18.50
2018-09-28T08:44:25.050Z,19.10
2018-09-28T08:46:57.543Z,19.70
2018-09-28T08:49:27.296Z,20.40
2018-09-28T08:51:56.795Z,21.20
2018-09-28T08:54:26.366Z,22.00
2018-09-28T08:56:55.530Z,22.50
2018-09-28T08:59:24.719Z,23.00
2018-09-28T09:01:53.790Z,23.40
2018-09-28T09:04:24.070Z,23.70
2018-09-28T09:06:53.740Z,24.10
2018-09-28T09:09:23.000Z,24.30
2018-09-28T09:11:52.505Z,24.60
2018-09-28T09:14:21.645Z,25.10
2018-09-28T09:16:52.473Z,25.40
2018-09-28T09:19:21.682Z,25.70
2018-09-28T09:21:50.819Z,25.80
2018-09-28T09:24:20.609Z,25.80
2018-09-28T09:26:49.726Z,26.00
2018-09-28T09:29:19.988Z,26.20
2018-09-28T09:31:49.094Z,26.60
2018-09-28T09:34:18.369Z,26.90
2018-09-28T09:36:48.169Z,27.00
2018-09-28T09:39:17.806Z,27.30
2018-09-28T09:41:47.397Z,27.50
2018-09-28T09:44:16.593Z,27.50
2018-09-28T09:46:45.617Z,27.40
2018-09-28T09:49:15.314Z,27.20
2018-09-28T09:51:45.398Z,27.00
2018-09-28T09:54:15.200Z,26.60
2018-09-28T09:56:44.314Z,26.40
2018-09-28T09:59:13.835Z,25.90
2018-09-28T10:01:48.341Z,25.80
2018-09-28T10:04:17.588Z,25.60
2018-09-28T10:06:46.719Z,25.60
2018-09-28T10:09:15.865Z,25.70
2018-09-28T10:11:45.503Z,25.60
2018-09-28T10:14:14.693Z,25.50
2018-09-28T10:16:43.794Z,26.00
2018-09-28T10:19:13.455Z,26.10
2018-09-28T10:21:44.538Z,26.00
2018-09-28T10:24:15.524Z,25.90
2018-09-28T10:26:44.750Z,25.70
2018-09-28T10:29:13.913Z,26.20
2018-09-28T10:31:43.111Z,26.80
2018-09-28T10:34:12.433Z,27.40
2018-09-28T10:36:42.527Z,28.00
2018-09-28T10:39:11.700Z,28.40
2018-09-28T10:41:40.828Z,28.80
2018-09-28T10:44:09.839Z,28.90
2018-09-28T10:46:38.975Z,29.20
2018-09-28T10:49:08.441Z,29.40
2018-09-28T10:51:37.695Z,29.40
2018-09-28T10:54:06.931Z,29.90
2018-09-28T10:56:36.485Z,30.40
2018-09-28T10:59:06.793Z,30.50
2018-09-28T11:01:35.864Z,30.40
2018-09-28T11:04:05.072Z,30.10
2018-09-28T11:06:34.243Z,30.40
2018-09-28T11:09:03.661Z,30.50
2018-09-28T11:11:33.677Z,30.90
2018-09-28T11:14:02.776Z,31.10
2018-09-28T11:16:31.815Z,31.20
2018-09-28T11:19:01.492Z,31.50
2018-09-28T11:21:30.716Z,31.60
2018-09-28T11:23:59.785Z,31.60
2018-09-28T11:26:31.498Z,31.50
2018-09-28T11:29:00.733Z,31.50
2018-09-28T11:31:30.287Z,32.00
2018-09-28T11:33:59.437Z,32.50
2018-09-28T11:36:28.708Z,32.30
2018-09-28T11:38:57.886Z,32.70
2018-09-28T11:41:27.107Z,32.60
2018-09-28T11:43:56.157Z,32.30
2018-09-28T11:46:25.397Z,32.10
2018-09-28T11:48:54.480Z,32.20
2018-09-28T11:51:24.780Z,32.10
2018-09-28T11:53:53.844Z,32.10
2018-09-28T11:56:23.015Z,31.80
2018-09-28T11:58:53.987Z,30.70
2018-09-28T12:01:23.479Z,30.60
2018-09-28T12:03:52.722Z,30.40
2018-09-28T12:06:21.941Z,30.40
2018-09-28T12:08:51.598Z,30.50
2018-09-28T12:11:20.803Z,30.30
2018-09-28T12:13:49.945Z,30.10
2018-09-28T12:16:20.176Z,30.10
2018-09-28T12:18:49.555Z,30.10
2018-09-28T12:21:18.739Z,30.10
2018-09-28T12:23:47.919Z,30.30
2018-09-28T12:26:16.998Z,30.50
2018-09-28T12:28:46.717Z,30.70
2018-09-28T12:31:16.438Z,30.90
2018-09-28T12:33:45.605Z,31.00
2018-09-28T12:36:15.425Z,31.00
2018-09-28T12:38:45.535Z,30.70
2018-09-28T12:41:14.675Z,30.80
2018-09-28T12:43:43.832Z,30.90
2018-09-28T12:46:12.955Z,31.10
2018-09-28T12:48:42.147Z,31.10
2018-09-28T12:51:11.308Z,31.00
2018-09-28T12:53:40.723Z,30.80
2018-09-28T12:56:10.514Z,30.30
2018-09-28T12:58:42.068Z,30.00
2018-09-28T13:01:11.376Z,29.90
2018-09-28T13:03:41.001Z,29.70
2018-09-28T13:06:10.212Z,29.50
2018-09-28T13:08:39.626Z,29.50
2018-09-28T13:11:08.781Z,28.90
2018-09-28T13:13:37.845Z,28.70
2018-09-28T13:16:07.437Z,28.70
2018-09-28T13:18:36.663Z,28.80
2018-09-28T13:21:06.472Z,28.50
2018-09-28T13:23:38.202Z,28.00
2018-09-28T13:26:07.462Z,27.90
2018-09-28T13:28:36.716Z,27.70
2018-09-28T13:31:06.280Z,27.70
2018-09-28T13:33:39.235Z,27.80
2018-09-28T13:36:08.264Z,27.90
2018-09-28T13:38:37.669Z,28.00
2018-09-28T13:41:06.785Z,28.10
2018-09-28T13:43:35.965Z,28.20
2018-09-28T13:46:05.305Z,28.40
2018-09-28T13:48:35.716Z,28.50
2018-09-28T13:51:04.921Z,28.60
2018-09-28T13:53:34.139Z,28.60
2018-09-28T13:56:03.480Z,28.60
2018-09-28T13:58:32.645Z,28.50
2018-09-28T14:01:01.939Z,28.40
2018-09-28T14:03:31.202Z,28.30
2018-09-28T14:06:00.368Z,28.20
2018-09-28T14:08:30.468Z,27.80
2018-09-28T14:11:00.300Z,27.40
2018-09-28T14:13:29.515Z,27.20
2018-09-28T14:15:58.823Z,26.80
2018-09-28T14:18:28.011Z,26.50
2018-09-28T14:20:57.098Z,26.10
2018-09-28T14:23:26.157Z,25.80
2018-09-28T14:25:55.319Z,25.60
2018-09-28T14:28:27.781Z,25.60
2018-09-28T14:30:57.757Z,25.70
2018-09-28T14:33:28.706Z,25.70
2018-09-28T14:35:57.809Z,25.70
2018-09-28T14:38:27.027Z,25.70
2018-09-28T14:40:56.230Z,25.70
2018-09-28T14:43:25.385Z,25.60
2018-09-28T14:45:54.585Z,25.50
2018-09-28T14:48:24.271Z,25.50
2018-09-28T14:50:53.230Z,25.40
2018-09-28T14:53:22.274Z,25.40
2018-09-28T14:55:51.434Z,25.20
2018-09-28T14:58:21.452Z,25.10
2018-09-28T15:00:50.734Z,25.00
2018-09-28T15:03:20.546Z,24.90
2018-09-28T15:05:49.665Z,24.80
2018-09-28T15:08:18.756Z,24.70
2018-09-28T15:10:48.333Z,24.50
2018-09-28T15:13:17.354Z,24.40
2018-09-28T15:15:48.285Z,24.30
2018-09-28T15:18:18.187Z,24.20
2018-09-28T15:20:47.328Z,24.10
2018-09-28T15:23:17.833Z,24.00
2018-09-28T15:25:48.030Z,24.00
2018-09-28T15:28:17.106Z,23.90
2018-09-28T15:30:47.357Z,23.80
2018-09-28T15:33:16.439Z,23.70
2018-09-28T15:35:45.579Z,23.60
2018-09-28T15:38:14.895Z,23.50
2018-09-28T15:40:54.210Z,23.40
2018-09-28T15:43:23.373Z,23.30
2018-09-28T15:45:52.487Z,23.10
2018-09-28T15:48:21.648Z,23.00
2018-09-28T15:50:50.770Z,22.90
2018-09-28T15:53:19.982Z,22.80
2018-09-28T15:55:49.199Z,22.70
2018-09-28T15:58:18.343Z,22.60
2018-09-28T16:00:47.487Z,22.50
2018-09-28T16:03:16.548Z,22.40
2018-09-28T16:05:46.241Z,22.40
2018-09-28T16:08:15.446Z,22.30
2018-09-28T16:10:44.726Z,22.20
2018-09-28T16:13:13.856Z,22.10
2018-09-28T16:15:42.959Z,22.10
2018-09-28T16:18:12.139Z,21.90
2018-09-28T16:20:41.317Z,21.90
2018-09-28T16:23:13.630Z,21.80
2018-09-28T16:25:43.742Z,21.80
2018-09-28T16:28:13.524Z,21.80
2018-09-28T16:30:42.651Z,21.60
2018-09-28T16:33:11.824Z,21.70
2018-09-28T16:35:41.911Z,21.60
2018-09-28T16:38:11.798Z,21.50
2018-09-28T16:40:40.980Z,21.40
2018-09-28T16:43:11.404Z,21.40
2018-09-28T16:45:40.555Z,21.40
2018-09-28T16:48:11.754Z,21.30
2018-09-28T16:50:40.992Z,21.30
2018-09-28T16:53:10.117Z,21.30
2018-09-28T16:55:39.306Z,21.20
2018-09-28T16:58:08.532Z,21.20
2018-09-28T17:00:38.129Z,21.10
2018-09-28T17:03:08.058Z,21.10
2018-09-28T17:05:37.139Z,21.00
2018-09-28T17:08:06.394Z,21.00
2018-09-28T17:10:35.508Z,21.10
2018-09-28T17:13:04.626Z,21.00
2018-09-28T17:15:33.849Z,21.00
2018-09-28T17:18:03.715Z,21.00
2018-09-28T17:20:33.487Z,21.00
2018-09-28T17:23:02.707Z,21.00
2018-09-28T17:25:31.725Z,21.00
2018-09-28T17:28:00.783Z,21.00
2018-09-28T17:30:29.904Z,21.00
2018-09-28T17:32:59.082Z,20.90
2018-09-28T17:35:28.682Z,20.90
2018-09-28T17:37:58.323Z,20.90
2018-09-28T17:40:27.926Z,20.80
2018-09-28T17:42:57.034Z,20.80
2018-09-28T17:45:26.161Z,20.80
2018-09-28T17:47:55.299Z,20.80
2018-09-28T17:50:24.405Z,20.80
2018-09-28T17:52:53.566Z,20.70
2018-09-28T17:55:24.939Z,20.70
2018-09-28T17:57:55.639Z,20.70
2018-09-28T18:00:24.777Z,20.70
2018-09-28T18:02:54.833Z,20.70
2018-09-28T18:05:24.017Z,20.70
2018-09-28T18:07:53.118Z,20.70
2018-09-28T18:10:22.326Z,20.70
2018-09-28T18:12:51.585Z,20.70
2018-09-28T18:15:22.554Z,20.60
2018-09-28T18:17:52.434Z,20.60
2018-09-28T18:20:21.565Z,20.60
2018-09-28T18:22:50.688Z,20.60
2018-09-28T18:25:19.937Z,20.60
2018-09-28T18:27:49.067Z,20.50
2018-09-28T18:30:18.173Z,20.50
2018-09-28T18:32:47.735Z,20.50
2018-09-28T18:35:17.868Z,20.40
2018-09-28T18:37:47.038Z,20.40
2018-09-28T18:40:16.131Z,20.40
2018-09-28T18:42:46.897Z,20.30
2018-09-28T18:45:16.059Z,20.30
2018-09-28T18:47:45.220Z,20.30
2018-09-28T18:50:14.792Z,20.20
2018-09-28T18:52:43.848Z,20.20
2018-09-28T18:55:13.000Z,20.20
2018-09-28T18:57:42.486Z,20.20
2018-09-28T19:00:11.559Z,20.10
2018-09-28T19:02:40.828Z,20.10
2018-09-28T19:05:10.085Z,20.10
2018-09-28T19:07:39.214Z,20.00
2018-09-28T19:10:08.474Z,20.00
2018-09-28T19:12:37.833Z,20.00
2018-09-28T19:15:07.340Z,20.00
2018-09-28T19:17:36.482Z,19.90
2018-09-28T19:20:05.720Z,19.90
2018-09-28T19:22:34.936Z,19.90
2018-09-28T19:25:05.099Z,19.80
2018-09-28T19:27:34.238Z,19.70
2018-09-28T19:30:03.329Z,19.80
2018-09-28T19:32:32.590Z,19.70
2018-09-28T19:35:01.701Z,19.70
2018-09-28T19:37:30.933Z,19.70
2018-09-28T19:40:00.310Z,19.70
2018-09-28T19:42:29.336Z,19.70
2018-09-28T19:44:59.293Z,19.70
2018-09-28T19:47:30.904Z,19.60
2018-09-28T19:50:02.293Z,19.50
2018-09-28T19:52:31.962Z,19.50
2018-09-28T19:55:02.388Z,19.40
2018-09-28T19:57:32.161Z,19.40
2018-09-28T20:00:03.047Z,19.30
2018-09-28T20:02:33.165Z,19.30
2018-09-28T20:05:04.123Z,19.20
2018-09-28T20:07:33.854Z,19.10
2018-09-28T20:10:03.768Z,19.00
2018-09-28T20:12:33.000Z,18.90
2018-09-28T20:15:02.646Z,18.90
2018-09-28T20:17:32.782Z,18.80
2018-09-28T20:20:03.908Z,18.70
2018-09-28T20:22:36.104Z,18.70
2018-09-28T20:25:06.048Z,18.60
2018-09-28T20:27:37.274Z,18.50
2018-09-28T20:30:07.904Z,18.50
2018-09-28T20:32:36.986Z,18.50
2018-09-28T20:35:06.144Z,18.40
2018-09-28T20:37:35.306Z,18.40
2018-09-28T20:40:05.434Z,18.30
2018-09-28T20:42:35.207Z,18.30
2018-09-28T20:45:04.511Z,18.30
2018-09-28T20:47:33.500Z,18.30
2018-09-28T20:50:02.693Z,18.20
2018-09-28T20:52:32.394Z,18.20
2018-09-28T20:55:02.118Z,18.20
2018-09-28T20:57:32.841Z,18.10
2018-09-28T21:00:02.383Z,18.10
2018-09-28T21:02:31.473Z,18.10
2018-09-28T21:05:00.502Z,18.00
2018-09-28T21:07:29.592Z,18.00
2018-09-28T21:09:59.215Z,17.90
2018-09-28T21:12:29.186Z,17.90
2018-09-28T21:14:58.385Z,17.80
2018-09-28T21:17:28.075Z,17.70
2018-09-28T21:19:57.352Z,17.60
2018-09-28T21:22:26.582Z,17.50
2018-09-28T21:24:55.743Z,17.50
2018-09-28T21:27:24.877Z,17.40
2018-09-28T21:29:54.184Z,17.40
2018-09-28T21:32:23.825Z,17.30
2018-09-28T21:34:53.044Z,17.20
2018-09-28T21:37:22.270Z,17.10
2018-09-28T21:39:51.390Z,17.10
2018-09-28T21:42:20.472Z,17.10
2018-09-28T21:44:50.352Z,17.10
2018-09-28T21:47:19.489Z,17.00
2018-09-28T21:49:49.718Z,16.90
2018-09-28T21:52:18.905Z,16.90
2018-09-28T21:54:48.739Z,16.90
2018-09-28T21:57:17.865Z,16.90
2018-09-28T21:59:47.045Z,16.90
2018-09-28T22:02:16.251Z,16.80
2018-09-28T22:04:45.523Z,16.80
2018-09-28T22:07:14.739Z,16.80
2018-09-28T22:09:43.964Z,16.70
2018-09-28T22:12:13.122Z,16.60
2018-09-28T22:14:42.388Z,16.60
2018-09-28T22:17:12.296Z,16.60
2018-09-28T22:19:42.289Z,16.50
2018-09-28T22:22:11.800Z,16.50
2018-09-28T22:24:40.917Z,16.50
2018-09-28T22:27:10.539Z,16.50
2018-09-28T22:29:40.764Z,16.40
2018-09-28T22:32:11.300Z,16.30
2018-09-28T22:34:40.836Z,16.30
2018-09-28T22:37:10.701Z,16.20
2018-09-28T22:39:39.764Z,16.20
2018-09-28T22:42:09.275Z,16.10
2018-09-28T22:44:38.927Z,16.00
2018-09-28T22:47:08.550Z,15.90
2018-09-28T22:49:37.618Z,15.80
2018-09-28T22:52:06.726Z,15.70
2018-09-28T22:54:35.898Z,15.60
2018-09-28T22:57:05.182Z,15.60
2018-09-28T22:59:34.338Z,15.50
2018-09-28T23:02:04.250Z,15.50
2018-09-28T23:04:33.407Z,15.40
2018-09-28T23:07:02.641Z,15.30
2018-09-28T23:09:31.829Z,15.30
2018-09-28T23:12:01.143Z,15.40
2018-09-28T23:14:31.064Z,15.40
2018-09-28T23:17:00.058Z,15.30
2018-09-28T23:19:29.185Z,15.30
2018-09-28T23:21:59.669Z,15.30
2018-09-28T23:24:28.841Z,15.30
2018-09-28T23:26:58.042Z,15.30
2018-09-28T23:29:28.083Z,15.30
2018-09-28T23:31:57.343Z,15.30
2018-09-28T23:34:26.722Z,15.20
2018-09-28T23:36:55.772Z,15.20
2018-09-28T23:39:25.015Z,15.20
2018-09-28T23:41:55.346Z,15.20
2018-09-28T23:44:24.309Z,15.20
2018-09-28T23:46:53.482Z,15.20
2018-09-28T23:49:23.202Z,15.20
2018-09-28T23:51:52.590Z,15.20
2018-09-28T23:54:21.802Z,15.20
2018-09-28T23:56:50.858Z,15.20
2018-09-28T23:59:22.177Z,15.20
